Archival Weather

Greater Kankakee

Kankakee, Illinois (KIKK)

Report from: Wednesday, December 6, 2023 2:35 AM CST
Current time: Saturday, February 24, 2024 9:26 AM CST

Current weather – Weather history – Daily summaries
Weather forecast

Temperature0.5°C (32.9°F)
Wind chill-2.5°C (27.5°F)
Dew point-2.0°C (28.4°F)
Winds 5 kts (2.6 m/s, 5.8 mph) West-Northwest (290°)
Visibility10 mi. (16.1 km)
Clouds Ceiling: Overcast 3,300 ft. (1,006 m)
Altimeter30.29 in.Hg (1026 mB)
Relative humidity83 %
Density altitude-2,114 ft. (-644 m)
Remarks Fully automated report
Automated weather observing station with precipitation discriminator
Present weather sensor not operating
Flight conditions Visual Meteorological Conditions
Raw dataKIKK 060835Z AUTO 29005KT 10SM OVC033 01/M02 A3029 RMK AO2 T00051020 PWINO
An error has occurred. This application may no longer respond until reloaded. Reload 🗙